Terminal Aerodrome Forecast
Issued by NWS

Home | Current Version | Previous Version | Graphics & Text | Print | Product List | Glossary On
Versions: 1 2 3 4 5 6 7 8 9 10 11 12 13 14 15 16 17 18
000
FTUS43 KICT 181726
TAFCNU
TAF
KCNU 181726Z 1818/1918 14006KT P6SM SCT040
     FM190700 15005KT P6SM VCTS BKN050CB
     FM191200 15004KT P6SM OVC025
     FM191400 18003KT P6SM OVC050=

USA.gov is the U.S. government's official web portal to all federal, state and local government web resources and services.